Terminal Aerodrome Forecast
Issued by NWS

Home | Current Version | Previous Version | Text Only | Print | Product List | Glossary On
Versions: 1 2 3 4 5 6 7 8 9 10 11 12 13 14 15 16 17 18 19 20
000
FTUS44 KEPZ 300335 AAA
TAFLRU
TAF AMD
KLRU 300335Z 3004/3024 VRB15G30KT 3SM TSRA BKN050 OVC070CB
     FM300500 VRB06KT P6SM VCTS SCT050CB BKN080 OVC120
      TEMPO 3005/3007 5SM TSRA BKN050CB OVC070
     FM300700 30007KT P6SM SCT050 BKN080 BKN200
     FM301700 12008KT P6SM FEW050 BKN120
     FM302100 15009KT P6SM VCTS SCT070CB SCT120 BKN250=

USA.gov is the U.S. government's official web portal to all federal, state and local government web resources and services.